sensor_id;sensor_type;location;lat;lon;timestamp;pressure;altitude;pressure_sealevel;temperature;humidity
28448;BME280;15675;52.870;-1.416;2022-11-20T00:01:48;100476.63;;;7.38;100.00
28448;BME280;15675;52.870;-1.416;2022-11-20T00:04:14;100467.47;;;7.62;100.00
28448;BME280;15675;52.870;-1.416;2022-11-20T00:06:40;100475.22;;;7.63;100.00
28448;BME280;15675;52.870;-1.416;2022-11-20T00:09:05;100472.88;;;7.83;100.00
28448;BME280;15675;52.870;-1.416;2022-11-20T00:11:31;100467.88;;;7.99;100.00
28448;BME280;15675;52.870;-1.416;2022-11-20T00:14:00;100453.41;;;8.21;100.00
28448;BME280;15675;52.870;-1.416;2022-11-20T00:16:27;100462.66;;;7.95;100.00
28448;BME280;15675;52.870;-1.416;2022-11-20T00:18:54;100456.00;;;8.19;100.00
28448;BME280;15675;52.870;-1.416;2022-11-20T00:21:21;100451.09;;;8.47;100.00
28448;BME280;15675;52.870;-1.416;2022-11-20T00:23:48;100452.31;;;8.98;100.00
28448;BME280;15675;52.870;-1.416;2022-11-20T00:26:15;100442.91;;;9.13;100.00
28448;BME280;15675;52.870;-1.416;2022-11-20T00:28:43;100440.22;;;8.94;100.00
28448;BME280;15675;52.870;-1.416;2022-11-20T00:31:14;100439.44;;;9.09;100.00
28448;BME280;15675;52.870;-1.416;2022-11-20T00:33:41;100437.81;;;9.35;100.00
28448;BME280;15675;52.870;-1.416;2022-11-20T00:36:18;100435.97;;;9.10;100.00
28448;BME280;15675;52.870;-1.416;2022-11-20T00:38:44;100432.16;;;8.51;100.00
28448;BME280;15675;52.870;-1.416;2022-11-20T00:41:12;100421.03;;;8.63;100.00
28448;BME280;15675;52.870;-1.416;2022-11-20T00:43:38;100418.44;;;8.63;100.00
28448;BME280;15675;52.870;-1.416;2022-11-20T00:46:10;100410.81;;;8.86;100.00
28448;BME280;15675;52.870;-1.416;2022-11-20T00:48:37;100415.22;;;8.96;100.00
28448;BME280;15675;52.870;-1.416;2022-11-20T00:51:03;100408.47;;;9.39;100.00
28448;BME280;15675;52.870;-1.416;2022-11-20T00:53:29;100401.44;;;9.04;100.00
28448;BME280;15675;52.870;-1.416;2022-11-20T00:56:04;100398.72;;;8.80;100.00
28448;BME280;15675;52.870;-1.416;2022-11-20T00:58:35;100390.28;;;9.15;100.00
28448;BME280;15675;52.870;-1.416;2022-11-20T01:01:06;100390.34;;;9.39;100.00
28448;BME280;15675;52.870;-1.416;2022-11-20T01:03:34;100389.38;;;9.06;100.00
28448;BME280;15675;52.870;-1.416;2022-11-20T01:06:02;100383.25;;;8.94;100.00
28448;BME280;15675;52.870;-1.416;2022-11-20T01:08:32;100374.56;;;8.85;100.00
28448;BME280;15675;52.870;-1.416;2022-11-20T01:11:03;100370.31;;;8.97;100.00
28448;BME280;15675;52.870;-1.416;2022-11-20T01:13:30;100371.84;;;8.54;100.00
28448;BME280;15675;52.870;-1.416;2022-11-20T01:16:24;100368.91;;;8.13;100.00
28448;BME280;15675;52.870;-1.416;2022-11-20T01:18:52;100380.19;;;8.26;100.00
28448;BME280;15675;52.870;-1.416;2022-11-20T01:21:23;100374.94;;;8.14;100.00
28448;BME280;15675;52.870;-1.416;2022-11-20T01:23:50;100368.88;;;8.10;100.00
28448;BME280;15675;52.870;-1.416;2022-11-20T01:26:22;100365.22;;;7.85;100.00
28448;BME280;15675;52.870;-1.416;2022-11-20T01:28:48;100355.56;;;7.66;100.00
28448;BME280;15675;52.870;-1.416;2022-11-20T01:33:41;100339.56;;;8.07;100.00
28448;BME280;15675;52.870;-1.416;2022-11-20T01:36:08;100347.25;;;8.01;100.00
28448;BME280;15675;52.870;-1.416;2022-11-20T01:38:34;100338.44;;;7.77;100.00
28448;BME280;15675;52.870;-1.416;2022-11-20T01:41:00;100334.13;;;7.76;100.00
28448;BME280;15675;52.870;-1.416;2022-11-20T01:43:26;100327.91;;;7.55;100.00
28448;BME280;15675;52.870;-1.416;2022-11-20T01:46:01;100334.91;;;7.66;100.00
28448;BME280;15675;52.870;-1.416;2022-11-20T01:51:30;100322.59;;;7.40;100.00
28448;BME280;15675;52.870;-1.416;2022-11-20T01:54:03;100328.59;;;7.40;100.00
28448;BME280;15675;52.870;-1.416;2022-11-20T01:56:33;100326.94;;;7.44;100.00
28448;BME280;15675;52.870;-1.416;2022-11-20T01:59:04;100314.84;;;7.38;100.00
28448;BME280;15675;52.870;-1.416;2022-11-20T02:01:31;100317.66;;;7.65;100.00
28448;BME280;15675;52.870;-1.416;2022-11-20T02:03:57;100310.06;;;7.85;100.00
28448;BME280;15675;52.870;-1.416;2022-11-20T02:06:28;100302.19;;;7.68;100.00
28448;BME280;15675;52.870;-1.416;2022-11-20T02:08:54;100304.63;;;7.54;100.00
28448;BME280;15675;52.870;-1.416;2022-11-20T02:11:20;100306.19;;;7.38;100.00
28448;BME280;15675;52.870;-1.416;2022-11-20T02:13:46;100303.44;;;7.22;100.00
28448;BME280;15675;52.870;-1.416;2022-11-20T02:16:19;100291.44;;;7.24;100.00
28448;BME280;15675;52.870;-1.416;2022-11-20T02:18:46;100284.06;;;7.62;100.00
28448;BME280;15675;52.870;-1.416;2022-11-20T02:26:23;100271.94;;;7.54;100.00
28448;BME280;15675;52.870;-1.416;2022-11-20T02:28:50;100270.47;;;7.87;100.00
28448;BME280;15675;52.870;-1.416;2022-11-20T02:31:16;100269.47;;;7.67;100.00
28448;BME280;15675;52.870;-1.416;2022-11-20T02:33:41;100263.22;;;7.43;100.00
28448;BME280;15675;52.870;-1.416;2022-11-20T02:36:11;100260.63;;;7.43;100.00
28448;BME280;15675;52.870;-1.416;2022-11-20T02:38:38;100249.50;;;7.47;100.00
28448;BME280;15675;52.870;-1.416;2022-11-20T02:41:04;100241.59;;;7.32;100.00
28448;BME280;15675;52.870;-1.416;2022-11-20T02:43:29;100234.53;;;7.15;100.00
28448;BME280;15675;52.870;-1.416;2022-11-20T02:45:55;100227.75;;;7.23;100.00
28448;BME280;15675;52.870;-1.416;2022-11-20T02:48:21;100230.34;;;7.26;100.00
28448;BME280;15675;52.870;-1.416;2022-11-20T02:50:47;100222.59;;;7.26;100.00
28448;BME280;15675;52.870;-1.416;2022-11-20T02:53:12;100218.41;;;7.38;100.00
28448;BME280;15675;52.870;-1.416;2022-11-20T02:55:38;100218.50;;;7.49;100.00
28448;BME280;15675;52.870;-1.416;2022-11-20T02:58:03;100216.72;;;7.40;100.00
28448;BME280;15675;52.870;-1.416;2022-11-20T03:00:29;100206.44;;;7.46;100.00
28448;BME280;15675;52.870;-1.416;2022-11-20T03:02:55;100206.53;;;7.58;100.00
28448;BME280;15675;52.870;-1.416;2022-11-20T03:05:20;100200.25;;;7.25;100.00
28448;BME280;15675;52.870;-1.416;2022-11-20T03:07:46;100206.53;;;7.57;100.00
28448;BME280;15675;52.870;-1.416;2022-11-20T03:10:11;100198.69;;;7.49;100.00
28448;BME280;15675;52.870;-1.416;2022-11-20T03:12:37;100189.03;;;7.23;100.00
28448;BME280;15675;52.870;-1.416;2022-11-20T03:15:03;100184.78;;;7.32;100.00
28448;BME280;15675;52.870;-1.416;2022-11-20T03:17:29;100180.56;;;7.40;100.00
28448;BME280;15675;52.870;-1.416;2022-11-20T03:19:56;100174.22;;;7.04;100.00
28448;BME280;15675;52.870;-1.416;2022-11-20T03:22:21;100162.19;;;7.03;100.00
28448;BME280;15675;52.870;-1.416;2022-11-20T03:24:47;100156.13;;;7.01;100.00
28448;BME280;15675;52.870;-1.416;2022-11-20T03:27:12;100152.56;;;6.89;100.00
28448;BME280;15675;52.870;-1.416;2022-11-20T03:29:38;100154.50;;;7.14;100.00
28448;BME280;15675;52.870;-1.416;2022-11-20T03:32:04;100154.66;;;7.31;100.00
28448;BME280;15675;52.870;-1.416;2022-11-20T03:34:29;100152.03;;;7.24;100.00
28448;BME280;15675;52.870;-1.416;2022-11-20T03:36:55;100137.41;;;7.25;100.00
28448;BME280;15675;52.870;-1.416;2022-11-20T03:39:20;100128.66;;;7.09;100.00
28448;BME280;15675;52.870;-1.416;2022-11-20T03:41:46;100122.59;;;7.04;100.00
28448;BME280;15675;52.870;-1.416;2022-11-20T03:44:12;100121.78;;;7.11;100.00
28448;BME280;15675;52.870;-1.416;2022-11-20T03:46:38;100108.03;;;7.12;100.00
28448;BME280;15675;52.870;-1.416;2022-11-20T03:49:03;100101.31;;;7.30;100.00
28448;BME280;15675;52.870;-1.416;2022-11-20T03:51:34;100106.31;;;7.11;100.00
28448;BME280;15675;52.870;-1.416;2022-11-20T03:54:03;100096.88;;;7.15;100.00
28448;BME280;15675;52.870;-1.416;2022-11-20T03:56:31;100085.72;;;7.17;100.00
28448;BME280;15675;52.870;-1.416;2022-11-20T03:58:57;100071.88;;;7.06;100.00
28448;BME280;15675;52.870;-1.416;2022-11-20T04:01:27;100071.91;;;7.11;100.00
28448;BME280;15675;52.870;-1.416;2022-11-20T04:03:55;100071.88;;;7.06;100.00
28448;BME280;15675;52.870;-1.416;2022-11-20T04:06:23;100070.97;;;7.02;100.00
28448;BME280;15675;52.870;-1.416;2022-11-20T04:08:50;100069.25;;;7.00;100.00
28448;BME280;15675;52.870;-1.416;2022-11-20T04:11:18;100066.69;;;7.04;100.00
28448;BME280;15675;52.870;-1.416;2022-11-20T04:13:49;100063.34;;;7.16;100.00
28448;BME280;15675;52.870;-1.416;2022-11-20T04:16:16;100053.97;;;7.31;100.00
28448;BME280;15675;52.870;-1.416;2022-11-20T04:18:42;100056.41;;;7.12;100.00
28448;BME280;15675;52.870;-1.416;2022-11-20T04:21:10;100052.97;;;7.08;100.00
28448;BME280;15675;52.870;-1.416;2022-11-20T04:23:36;100053.03;;;7.18;100.00
28448;BME280;15675;52.870;-1.416;2022-11-20T04:26:04;100044.47;;;7.28;100.00
28448;BME280;15675;52.870;-1.416;2022-11-20T04:28:30;100031.63;;;7.31;100.00
28448;BME280;15675;52.870;-1.416;2022-11-20T04:31:08;100030.59;;;7.11;100.00
28448;BME280;15675;52.870;-1.416;2022-11-20T04:33:35;100023.69;;;7.06;100.00
28448;BME280;15675;52.870;-1.416;2022-11-20T04:36:11;100019.38;;;7.04;100.00
28448;BME280;15675;52.870;-1.416;2022-11-20T04:38:37;100028.09;;;7.21;100.00
28448;BME280;15675;52.870;-1.416;2022-11-20T04:41:05;100033.31;;;7.31;100.00
28448;BME280;15675;52.870;-1.416;2022-11-20T04:43:32;100024.69;;;7.25;100.00
28448;BME280;15675;52.870;-1.416;2022-11-20T04:46:00;100027.31;;;7.33;100.00
28448;BME280;15675;52.870;-1.416;2022-11-20T04:48:28;100018.72;;;7.37;100.00
28448;BME280;15675;52.870;-1.416;2022-11-20T04:50:55;100010.13;;;7.37;100.00
28448;BME280;15675;52.870;-1.416;2022-11-20T04:53:21;100010.13;;;7.38;100.00
28448;BME280;15675;52.870;-1.416;2022-11-20T04:55:47;100011.06;;;7.54;100.00
28448;BME280;15675;52.870;-1.416;2022-11-20T04:58:13;100007.44;;;7.20;100.00
28448;BME280;15675;52.870;-1.416;2022-11-20T05:00:39;100010.91;;;7.23;100.00
28448;BME280;15675;52.870;-1.416;2022-11-20T05:03:05;100010.09;;;7.32;100.00
28448;BME280;15675;52.870;-1.416;2022-11-20T05:05:33;100014.50;;;7.56;100.00
28448;BME280;15675;52.870;-1.416;2022-11-20T05:07:59;100007.50;;;7.34;100.00
28448;BME280;15675;52.870;-1.416;2022-11-20T05:10:25;100014.41;;;7.38;100.00
28448;BME280;15675;52.870;-1.416;2022-11-20T05:12:51;100010.91;;;7.23;100.00
28448;BME280;15675;52.870;-1.416;2022-11-20T05:15:17;100013.66;;;7.50;100.00
28448;BME280;15675;52.870;-1.416;2022-11-20T05:17:49;100013.53;;;7.30;100.00
28448;BME280;15675;52.870;-1.416;2022-11-20T05:20:15;100019.59;;;7.39;100.00
28448;BME280;15675;52.870;-1.416;2022-11-20T05:22:41;100024.84;;;7.58;100.00
28448;BME280;15675;52.870;-1.416;2022-11-20T05:25:06;100024.06;;;7.70;100.00
28448;BME280;15675;52.870;-1.416;2022-11-20T05:27:32;100021.41;;;7.57;100.00
28448;BME280;15675;52.870;-1.416;2022-11-20T05:29:58;100014.50;;;7.50;100.00
28448;BME280;15675;52.870;-1.416;2022-11-20T05:32:23;100017.06;;;7.47;100.00
28448;BME280;15675;52.870;-1.416;2022-11-20T05:34:51;100014.50;;;7.56;100.00
28448;BME280;15675;52.870;-1.416;2022-11-20T05:37:19;100010.19;;;7.51;100.00
28448;BME280;15675;52.870;-1.416;2022-11-20T05:39:45;100011.97;;;7.63;100.00
28448;BME280;15675;52.870;-1.416;2022-11-20T05:42:11;100007.59;;;7.49;100.00
28448;BME280;15675;52.870;-1.416;2022-11-20T05:44:55;100009.31;;;7.44;100.00
28448;BME280;15675;52.870;-1.416;2022-11-20T05:47:21;100021.56;;;7.88;100.00
28448;BME280;15675;52.870;-1.416;2022-11-20T05:49:47;100016.38;;;7.88;100.00
28448;BME280;15675;52.870;-1.416;2022-11-20T05:52:12;100013.88;;;8.13;100.00
28448;BME280;15675;52.870;-1.416;2022-11-20T05:54:38;100015.59;;;8.12;100.00
28448;BME280;15675;52.870;-1.416;2022-11-20T05:57:03;100013.88;;;8.15;100.00
28448;BME280;15675;52.870;-1.416;2022-11-20T05:59:29;100024.22;;;8.15;100.00
28448;BME280;15675;52.870;-1.416;2022-11-20T06:01:55;100017.34;;;8.24;100.00
28448;BME280;15675;52.870;-1.416;2022-11-20T06:04:21;100007.81;;;8.08;100.00
28448;BME280;15675;52.870;-1.416;2022-11-20T06:06:46;100020.78;;;8.22;100.00
28448;BME280;15675;52.870;-1.416;2022-11-20T06:09:12;100009.53;;;8.06;100.00
28448;BME280;15675;52.870;-1.416;2022-11-20T06:11:37;100006.09;;;8.08;100.00
28448;BME280;15675;52.870;-1.416;2022-11-20T06:14:03;99998.44;;;8.45;100.00
28448;BME280;15675;52.870;-1.416;2022-11-20T06:16:29;99991.56;;;8.61;100.00
28448;BME280;15675;52.870;-1.416;2022-11-20T06:18:54;99992.38;;;8.43;100.00
28448;BME280;15675;52.870;-1.416;2022-11-20T06:21:21;99986.31;;;8.27;100.00
28448;BME280;15675;52.870;-1.416;2022-11-20T06:23:48;99992.38;;;8.31;100.00
28448;BME280;15675;52.870;-1.416;2022-11-20T06:26:16;99995.81;;;8.32;100.00
28448;BME280;15675;52.870;-1.416;2022-11-20T06:28:42;99994.97;;;8.28;100.00
28448;BME280;15675;52.870;-1.416;2022-11-20T06:31:11;100002.78;;;8.51;100.00
28448;BME280;15675;52.870;-1.416;2022-11-20T06:33:37;99991.53;;;8.51;100.00
28448;BME280;15675;52.870;-1.416;2022-11-20T06:36:04;99987.25;;;8.65;100.00
28448;BME280;15675;52.870;-1.416;2022-11-20T06:38:29;99984.66;;;8.51;100.00
28448;BME280;15675;52.870;-1.416;2022-11-20T06:40:55;99986.38;;;8.58;100.00
28448;BME280;15675;52.870;-1.416;2022-11-20T06:43:22;99999.31;;;8.55;100.00
28448;BME280;15675;52.870;-1.416;2022-11-20T06:45:57;99997.56;;;8.45;100.00
28448;BME280;15675;52.870;-1.416;2022-11-20T06:48:24;99991.56;;;8.57;100.00
28448;BME280;15675;52.870;-1.416;2022-11-20T06:50:50;99989.81;;;8.56;100.00
28448;BME280;15675;52.870;-1.416;2022-11-20T06:53:16;99991.50;;;8.41;100.00
28448;BME280;15675;52.870;-1.416;2022-11-20T06:55:43;99985.47;;;8.36;100.00
28448;BME280;15675;52.870;-1.416;2022-11-20T06:58:10;99983.78;;;8.44;100.00
28448;BME280;15675;52.870;-1.416;2022-11-20T07:00:35;99990.63;;;8.32;100.00
28448;BME280;15675;52.870;-1.416;2022-11-20T07:03:06;99996.66;;;8.18;100.00
28448;BME280;15675;52.870;-1.416;2022-11-20T07:05:35;100000.09;;;8.23;100.00
28448;BME280;15675;52.870;-1.416;2022-11-20T07:08:01;100007.84;;;8.12;100.00
28448;BME280;15675;52.870;-1.416;2022-11-20T07:10:27;100000.94;;;8.19;100.00
28448;BME280;15675;52.870;-1.416;2022-11-20T07:12:53;100022.47;;;8.04;100.00
28448;BME280;15675;52.870;-1.416;2022-11-20T07:15:19;100031.06;;;7.99;100.00
28448;BME280;15675;52.870;-1.416;2022-11-20T07:17:46;100033.66;;;8.02;100.00
28448;BME280;15675;52.870;-1.416;2022-11-20T07:20:12;100039.66;;;7.94;100.00
28448;BME280;15675;52.870;-1.416;2022-11-20T07:22:38;100035.31;;;7.84;100.00
28448;BME280;15675;52.870;-1.416;2022-11-20T07:25:04;100028.41;;;7.74;100.00
28448;BME280;15675;52.870;-1.416;2022-11-20T07:27:30;100033.59;;;7.86;100.00
28448;BME280;15675;52.870;-1.416;2022-11-20T07:29:56;100036.22;;;7.91;100.00
28448;BME280;15675;52.870;-1.416;2022-11-20T07:32:22;100039.69;;;8.02;100.00
28448;BME280;15675;52.870;-1.416;2022-11-20T07:34:48;100037.06;;;7.87;100.00
28448;BME280;15675;52.870;-1.416;2022-11-20T07:37:13;100044.81;;;7.87;100.00
28448;BME280;15675;52.870;-1.416;2022-11-20T07:39:39;100040.50;;;7.92;100.00
28448;BME280;15675;52.870;-1.416;2022-11-20T07:42:08;100038.75;;;7.86;100.00
28448;BME280;15675;52.870;-1.416;2022-11-20T07:44:34;100038.75;;;7.86;100.00
28448;BME280;15675;52.870;-1.416;2022-11-20T07:46:59;100042.16;;;7.70;100.00
28448;BME280;15675;52.870;-1.416;2022-11-20T07:49:25;100045.59;;;7.73;100.00
28448;BME280;15675;52.870;-1.416;2022-11-20T07:51:51;100040.47;;;7.81;100.00
28448;BME280;15675;52.870;-1.416;2022-11-20T07:54:16;100052.56;;;7.88;100.00
28448;BME280;15675;52.870;-1.416;2022-11-20T07:56:42;100057.66;;;7.73;100.00
28448;BME280;15675;52.870;-1.416;2022-11-20T07:59:07;100059.41;;;7.78;100.00
28448;BME280;15675;52.870;-1.416;2022-11-20T08:01:33;100055.94;;;7.73;100.00
28448;BME280;15675;52.870;-1.416;2022-11-20T08:03:58;100061.09;;;7.78;100.00
28448;BME280;15675;52.870;-1.416;2022-11-20T08:06:24;100064.59;;;7.83;100.00
28448;BME280;15675;52.870;-1.416;2022-11-20T08:08:50;100063.69;;;7.76;100.00
28448;BME280;15675;52.870;-1.416;2022-11-20T08:11:16;100062.84;;;7.76;100.00
28448;BME280;15675;52.870;-1.416;2022-11-20T08:14:00;100061.06;;;7.66;100.00
28448;BME280;15675;52.870;-1.416;2022-11-20T08:16:47;100063.66;;;7.69;100.00
28448;BME280;15675;52.870;-1.416;2022-11-20T08:19:17;100071.34;;;7.56;100.00
28448;BME280;15675;52.870;-1.416;2022-11-20T08:21:43;100073.09;;;7.64;100.00
28448;BME280;15675;52.870;-1.416;2022-11-20T08:24:09;100084.25;;;7.59;100.00
28448;BME280;15675;52.870;-1.416;2022-11-20T08:26:36;100080.75;;;7.47;100.00
28448;BME280;15675;52.870;-1.416;2022-11-20T08:29:02;100090.31;;;7.62;100.00
28448;BME280;15675;52.870;-1.416;2022-11-20T08:31:29;100083.41;;;7.59;100.00
28448;BME280;15675;52.870;-1.416;2022-11-20T08:33:55;100084.34;;;7.70;100.00
28448;BME280;15675;52.870;-1.416;2022-11-20T08:36:21;100085.97;;;7.51;100.00
28448;BME280;15675;52.870;-1.416;2022-11-20T08:38:52;100088.63;;;7.67;100.00
28448;BME280;15675;52.870;-1.416;2022-11-20T08:41:19;100088.56;;;7.54;100.00
28448;BME280;15675;52.870;-1.416;2022-11-20T08:44:05;100092.91;;;7.62;100.00
28448;BME280;15675;52.870;-1.416;2022-11-20T08:46:33;100094.59;;;7.59;100.00
28448;BME280;15675;52.870;-1.416;2022-11-20T08:49:00;100096.38;;;7.67;100.00
28448;BME280;15675;52.870;-1.416;2022-11-20T08:51:26;100099.91;;;7.83;100.00
28448;BME280;15675;52.870;-1.416;2022-11-20T08:53:51;100102.44;;;7.72;100.00
28448;BME280;15675;52.870;-1.416;2022-11-20T08:56:17;100100.69;;;7.69;100.00
28448;BME280;15675;52.870;-1.416;2022-11-20T08:58:43;100102.41;;;7.69;100.00
28448;BME280;15675;52.870;-1.416;2022-11-20T09:01:08;100100.63;;;7.57;100.00
28448;BME280;15675;52.870;-1.416;2022-11-20T09:03:34;100095.41;;;7.49;100.00
28448;BME280;15675;52.870;-1.416;2022-11-20T09:06:01;100097.13;;;7.50;100.00
28448;BME280;15675;52.870;-1.416;2022-11-20T09:08:28;100094.59;;;7.59;100.00
28448;BME280;15675;52.870;-1.416;2022-11-20T09:10:55;100100.66;;;7.65;100.00
28448;BME280;15675;52.870;-1.416;2022-11-20T09:13:21;100106.66;;;7.60;100.00
28448;BME280;15675;52.870;-1.416;2022-11-20T09:15:53;100098.88;;;7.54;100.00
28448;BME280;15675;52.870;-1.416;2022-11-20T09:18:18;100097.22;;;7.63;100.00
28448;BME280;15675;52.870;-1.416;2022-11-20T09:20:44;100096.44;;;7.76;100.00
28448;BME280;15675;52.870;-1.416;2022-11-20T09:23:09;100100.69;;;7.72;100.00
28448;BME280;15675;52.870;-1.416;2022-11-20T09:25:35;100107.69;;;7.90;100.00
28448;BME280;15675;52.870;-1.416;2022-11-20T09:28:00;100114.63;;;7.99;100.00
28448;BME280;15675;52.870;-1.416;2022-11-20T09:30:26;100115.44;;;7.89;100.00
28448;BME280;15675;52.870;-1.416;2022-11-20T09:32:52;100111.19;;;7.99;100.00
28448;BME280;15675;52.870;-1.416;2022-11-20T09:35:18;100112.97;;;8.13;100.00
28448;BME280;15675;52.870;-1.416;2022-11-20T09:37:44;100113.84;;;8.20;100.00
28448;BME280;15675;52.870;-1.416;2022-11-20T09:40:20;100112.16;;;8.24;100.00
28448;BME280;15675;52.870;-1.416;2022-11-20T09:48:39;100109.63;;;8.44;100.00
28448;BME280;15675;52.870;-1.416;2022-11-20T09:51:31;100116.50;;;8.28;100.00
28448;BME280;15675;52.870;-1.416;2022-11-20T09:56:33;100116.50;;;8.39;100.00
28448;BME280;15675;52.870;-1.416;2022-11-20T09:59:02;100109.56;;;8.27;100.00
28448;BME280;15675;52.870;-1.416;2022-11-20T10:01:32;100114.75;;;8.33;100.00
28448;BME280;15675;52.870;-1.416;2022-11-20T10:04:17;100098.31;;;8.11;100.00
28448;BME280;15675;52.870;-1.416;2022-11-20T10:10:03;100094.16;;;8.50;100.00
28448;BME280;15675;52.870;-1.416;2022-11-20T10:20:43;100099.38;;;8.84;100.00
28448;BME280;15675;52.870;-1.416;2022-11-20T10:26:22;100092.50;;;8.97;100.00
28448;BME280;15675;52.870;-1.416;2022-11-20T10:31:40;100107.09;;;8.55;100.00
28448;BME280;15675;52.870;-1.416;2022-11-20T10:34:15;100104.56;;;8.78;100.00
28448;BME280;15675;52.870;-1.416;2022-11-20T10:36:49;100102.81;;;8.83;100.00
28448;BME280;15675;52.870;-1.416;2022-11-20T10:41:51;100101.97;;;8.89;100.00
28448;BME280;15675;52.870;-1.416;2022-11-20T10:44:21;100094.22;;;9.18;100.00
28448;BME280;15675;52.870;-1.416;2022-11-20T10:47:13;100087.31;;;9.03;100.00
28448;BME280;15675;52.870;-1.416;2022-11-20T10:49:40;100084.72;;;9.00;100.00
28448;BME280;15675;52.870;-1.416;2022-11-20T10:54:54;100079.56;;;9.14;100.00
28448;BME280;15675;52.870;-1.416;2022-11-20T10:57:31;100070.94;;;9.15;100.00
28448;BME280;15675;52.870;-1.416;2022-11-20T11:00:07;100081.28;;;9.15;100.00
28448;BME280;15675;52.870;-1.416;2022-11-20T11:02:50;100072.66;;;9.10;100.00
28448;BME280;15675;52.870;-1.416;2022-11-20T11:05:27;100071.75;;;9.23;100.00
28448;BME280;15675;52.870;-1.416;2022-11-20T11:07:56;100070.88;;;9.30;100.00
28448;BME280;15675;52.870;-1.416;2022-11-20T11:11:14;100065.72;;;9.21;100.00
28448;BME280;15675;52.870;-1.416;2022-11-20T11:13:30;100060.47;;;9.58;100.00
28448;BME280;15675;52.870;-1.416;2022-11-20T11:15:57;100052.75;;;9.30;100.00
28448;BME280;15675;52.870;-1.416;2022-11-20T11:18:30;100052.78;;;9.18;100.00
28448;BME280;15675;52.870;-1.416;2022-11-20T11:20:59;100061.41;;;9.32;100.00
28448;BME280;15675;52.870;-1.416;2022-11-20T11:23:45;100065.69;;;9.47;100.00
28448;BME280;15675;52.870;-1.416;2022-11-20T11:26:22;100042.41;;;9.27;100.00
28448;BME280;15675;52.870;-1.416;2022-11-20T11:28:59;100044.97;;;9.30;100.00
28448;BME280;15675;52.870;-1.416;2022-11-20T11:31:33;100045.88;;;9.31;100.00
28448;BME280;15675;52.870;-1.416;2022-11-20T11:34:13;100053.50;;;9.74;100.00
28448;BME280;15675;52.870;-1.416;2022-11-20T11:36:39;100056.00;;;9.97;100.00
28448;BME280;15675;52.870;-1.416;2022-11-20T11:39:11;100056.09;;;9.79;100.00
28448;BME280;15675;52.870;-1.416;2022-11-20T11:41:40;100062.19;;;9.62;100.00
28448;BME280;15675;52.870;-1.416;2022-11-20T11:44:21;100065.59;;;9.88;100.00
28448;BME280;15675;52.870;-1.416;2022-11-20T11:47:46;100055.28;;;9.71;100.00
28448;BME280;15675;52.870;-1.416;2022-11-20T11:50:16;100061.31;;;9.70;100.00
28448;BME280;15675;52.870;-1.416;2022-11-20T11:55:20;100047.44;;;9.89;100.00
28448;BME280;15675;52.870;-1.416;2022-11-20T11:57:55;100041.34;;;9.90;100.00
28448;BME280;15675;52.870;-1.416;2022-11-20T12:00:24;100046.59;;;9.73;100.00
28448;BME280;15675;52.870;-1.416;2022-11-20T12:03:05;100032.81;;;9.60;100.00
28448;BME280;15675;52.870;-1.416;2022-11-20T12:05:40;100039.69;;;9.77;100.00
28448;BME280;15675;52.870;-1.416;2022-11-20T12:08:29;100038.78;;;9.87;100.00
28448;BME280;15675;52.870;-1.416;2022-11-20T12:11:14;100039.47;;;10.20;100.00
28448;BME280;15675;52.870;-1.416;2022-11-20T12:13:58;100045.63;;;10.05;100.00
28448;BME280;15675;52.870;-1.416;2022-11-20T12:16:27;100043.13;;;9.85;100.00
28448;BME280;15675;52.870;-1.416;2022-11-20T12:18:53;100040.34;;;10.17;100.00
28448;BME280;15675;52.870;-1.416;2022-11-20T12:24:13;100025.53;;;10.49;100.00
28448;BME280;15675;52.870;-1.416;2022-11-20T12:27:15;100022.03;;;10.51;100.00
28448;BME280;15675;52.870;-1.416;2022-11-20T12:44:23;100037.75;;;10.24;100.00
28448;BME280;15675;52.870;-1.416;2022-11-20T12:47:27;100034.25;;;10.34;100.00
28448;BME280;15675;52.870;-1.416;2022-11-20T12:50:22;100031.41;;;10.71;100.00
28448;BME280;15675;52.870;-1.416;2022-11-20T12:53:10;100041.16;;;10.32;100.00
28448;BME280;15675;52.870;-1.416;2022-11-20T12:55:57;100036.81;;;10.40;100.00
28448;BME280;15675;52.870;-1.416;2022-11-20T13:01:24;100036.09;;;10.13;100.00
28448;BME280;15675;52.870;-1.416;2022-11-20T13:06:48;100030.78;;;10.27;100.00
28448;BME280;15675;52.870;-1.416;2022-11-20T13:09:17;100021.13;;;10.56;100.00
28448;BME280;15675;52.870;-1.416;2022-11-20T13:17:04;100029.72;;;10.64;100.00
28448;BME280;15675;52.870;-1.416;2022-11-20T13:19:31;100017.66;;;10.58;100.00
28448;BME280;15675;52.870;-1.416;2022-11-20T13:21:57;100016.06;;;10.39;100.00
28448;BME280;15675;52.870;-1.416;2022-11-20T13:24:25;100019.31;;;10.67;100.00
28448;BME280;15675;52.870;-1.416;2022-11-20T13:29:43;100015.84;;;10.69;100.00
28448;BME280;15675;52.870;-1.416;2022-11-20T13:32:17;100025.50;;;10.53;100.00
28448;BME280;15675;52.870;-1.416;2022-11-20T13:35:00;100029.00;;;10.46;100.00
28448;BME280;15675;52.870;-1.416;2022-11-20T13:37:34;100043.59;;;10.58;100.00
28448;BME280;15675;52.870;-1.416;2022-11-20T13:40:11;100040.94;;;10.69;100.00
28448;BME280;15675;52.870;-1.416;2022-11-20T13:42:40;100033.94;;;10.79;100.00
28448;BME280;15675;52.870;-1.416;2022-11-20T13:45:11;100037.59;;;10.50;100.00
28448;BME280;15675;52.870;-1.416;2022-11-20T13:47:50;100020.97;;;10.76;100.00
28448;BME280;15675;52.870;-1.416;2022-11-20T13:50:17;100019.28;;;10.70;100.00
28448;BME280;15675;52.870;-1.416;2022-11-20T13:55:38;100009.22;;;11.32;99.38
28448;BME280;15675;52.870;-1.416;2022-11-20T13:58:24;100015.25;;;11.36;96.96
28448;BME280;15675;52.870;-1.416;2022-11-20T14:01:19;100010.78;;;11.47;95.97
28448;BME280;15675;52.870;-1.416;2022-11-20T14:03:46;100008.13;;;11.52;94.73
28448;BME280;15675;52.870;-1.416;2022-11-20T14:06:27;100011.19;;;11.85;93.54
28448;BME280;15675;52.870;-1.416;2022-11-20T14:08:53;100016.16;;;11.30;91.97
28448;BME280;15675;52.870;-1.416;2022-11-20T14:11:21;100006.28;;;10.76;93.07